createdAt,value
2017-07-28T00:00:31.787Z,2.80
2017-07-28T00:01:36.718Z,3.12
2017-07-28T00:02:41.691Z,2.70
2017-07-28T00:03:46.616Z,2.85
2017-07-28T00:04:51.568Z,3.08
2017-07-28T00:05:56.485Z,2.90
2017-07-28T00:07:01.418Z,3.33
2017-07-28T00:08:07.288Z,2.62
2017-07-28T00:09:12.226Z,2.70
2017-07-28T00:10:17.272Z,2.67
2017-07-28T00:11:22.232Z,2.70
2017-07-28T00:12:27.189Z,2.80
2017-07-28T00:13:32.168Z,2.90
2017-07-28T00:14:37.108Z,2.80
2017-07-28T00:15:42.036Z,2.80
2017-07-28T00:16:46.984Z,2.65
2017-07-28T00:17:51.898Z,3.17
2017-07-28T00:18:56.874Z,3.00
2017-07-28T00:20:01.809Z,2.72
2017-07-28T00:21:06.774Z,2.47
2017-07-28T00:22:11.729Z,3.25
2017-07-28T00:23:16.673Z,2.67
2017-07-28T00:24:21.649Z,3.08
2017-07-28T00:25:26.588Z,2.17
2017-07-28T00:26:31.515Z,3.10
2017-07-28T00:27:36.461Z,3.08
2017-07-28T00:28:41.401Z,2.50
2017-07-28T00:29:46.378Z,2.85
2017-07-28T00:30:51.330Z,3.35
2017-07-28T00:31:56.264Z,2.90
2017-07-28T00:33:01.207Z,3.30
2017-07-28T00:34:06.156Z,3.20
2017-07-28T00:35:11.141Z,3.33
2017-07-28T00:36:16.085Z,3.95
2017-07-28T00:37:21.028Z,3.50
2017-07-28T00:38:25.957Z,3.33
2017-07-28T00:39:30.886Z,3.42
2017-07-28T00:40:35.849Z,3.10
2017-07-28T00:41:40.774Z,4.40
2017-07-28T00:42:45.686Z,3.17
2017-07-28T00:43:50.613Z,4.00
2017-07-28T00:45:01.387Z,3.70
2017-07-28T00:46:06.357Z,3.67
2017-07-28T00:47:16.368Z,3.10
2017-07-28T00:48:21.297Z,3.22
2017-07-28T00:49:26.244Z,3.67
2017-07-28T00:50:31.176Z,4.00
2017-07-28T00:51:37.926Z,3.40
2017-07-28T00:52:42.874Z,3.53
2017-07-28T00:53:47.821Z,3.55
2017-07-28T00:54:52.793Z,3.47
2017-07-28T00:55:57.726Z,3.12
2017-07-28T00:57:02.702Z,3.97
2017-07-28T00:58:07.638Z,3.17
2017-07-28T00:59:12.558Z,3.33
2017-07-28T01:00:17.553Z,3.20
2017-07-28T01:01:22.471Z,3.20
2017-07-28T01:02:27.435Z,3.00
2017-07-28T01:03:32.392Z,2.95
2017-07-28T01:04:38.332Z,2.65
2017-07-28T01:05:43.298Z,3.15
2017-07-28T01:06:48.221Z,2.62
2017-07-28T01:07:59.003Z,2.97
2017-07-28T01:09:03.408Z,2.87
2017-07-28T01:10:08.363Z,3.05
2017-07-28T01:11:13.302Z,3.17
2017-07-28T01:12:18.233Z,2.80
2017-07-28T01:13:23.234Z,2.70
2017-07-28T01:14:28.265Z,2.60
2017-07-28T01:15:33.219Z,2.50
2017-07-28T01:16:38.139Z,2.47
2017-07-28T01:17:43.088Z,3.00
2017-07-28T01:18:48.035Z,3.15
2017-07-28T01:19:52.999Z,2.62
2017-07-28T01:20:57.901Z,2.30
2017-07-28T01:22:02.837Z,2.47
2017-07-28T01:23:07.771Z,2.60
2017-07-28T01:24:12.744Z,3.30
2017-07-28T01:25:17.674Z,2.70
2017-07-28T01:26:22.580Z,2.58
2017-07-28T01:27:27.500Z,2.72
2017-07-28T01:28:32.445Z,2.15
2017-07-28T01:29:37.406Z,2.62
2017-07-28T01:30:42.349Z,2.50
2017-07-28T01:31:47.273Z,2.20
2017-07-28T01:32:52.245Z,3.00
2017-07-28T01:33:57.201Z,2.55
2017-07-28T01:35:02.180Z,2.40
2017-07-28T01:36:07.124Z,2.45
2017-07-28T01:37:12.093Z,2.10
2017-07-28T01:38:17.014Z,2.42
2017-07-28T01:39:21.943Z,2.37
2017-07-28T01:40:26.908Z,2.67
2017-07-28T01:41:31.829Z,2.90
2017-07-28T01:42:36.770Z,1.95
2017-07-28T01:43:41.696Z,2.20
2017-07-28T01:44:46.645Z,2.30
2017-07-28T01:45:51.659Z,2.10
2017-07-28T01:46:56.607Z,2.37
2017-07-28T01:48:01.538Z,2.40
2017-07-28T01:49:06.131Z,2.15
2017-07-28T01:50:11.075Z,1.90
2017-07-28T01:51:16.059Z,2.58
2017-07-28T01:52:20.625Z,3.08
2017-07-28T01:53:25.565Z,2.22
2017-07-28T01:54:30.149Z,2.33
2017-07-28T01:55:35.176Z,2.50
2017-07-28T01:56:39.802Z,2.50
2017-07-28T01:57:44.764Z,2.30
2017-07-28T01:58:49.709Z,2.10
2017-07-28T01:59:54.678Z,2.30
2017-07-28T02:00:58.929Z,3.12
2017-07-28T02:02:03.181Z,2.15
2017-07-28T02:03:07.412Z,2.50
2017-07-28T02:04:12.326Z,2.50
2017-07-28T02:05:17.260Z,2.83
2017-07-28T02:06:21.828Z,2.55
2017-07-28T02:07:26.801Z,2.78
2017-07-28T02:08:31.740Z,3.12
2017-07-28T02:09:36.669Z,2.80
2017-07-28T02:10:43.373Z,3.00
2017-07-28T02:11:53.725Z,2.80
2017-07-28T02:12:58.721Z,2.87
2017-07-28T02:14:03.671Z,3.00
2017-07-28T02:15:08.621Z,2.90
2017-07-28T02:16:13.554Z,3.03
2017-07-28T02:17:18.501Z,2.87
2017-07-28T02:18:23.481Z,3.33
2017-07-28T02:19:28.421Z,3.00
2017-07-28T02:20:33.376Z,3.37
2017-07-28T02:21:38.359Z,2.80
2017-07-28T02:22:43.313Z,3.62
2017-07-28T02:23:48.338Z,3.37
2017-07-28T02:24:53.266Z,3.05
2017-07-28T02:25:58.201Z,3.10
2017-07-28T02:27:03.126Z,3.40
2017-07-28T02:28:08.051Z,3.35
2017-07-28T02:29:13.057Z,2.90
2017-07-28T02:30:17.993Z,3.03
2017-07-28T02:31:22.941Z,3.22
2017-07-28T02:32:27.885Z,3.53
2017-07-28T02:33:32.822Z,3.30
2017-07-28T02:34:37.789Z,3.25
2017-07-28T02:35:42.716Z,3.10
2017-07-28T02:36:47.639Z,3.55
2017-07-28T02:37:52.583Z,3.20
2017-07-28T02:38:57.544Z,3.50
2017-07-28T02:40:02.538Z,3.80
2017-07-28T02:41:07.493Z,3.60
2017-07-28T02:42:12.413Z,3.35
2017-07-28T02:43:17.341Z,3.72
2017-07-28T02:44:22.300Z,3.60
2017-07-28T02:45:27.278Z,3.62
2017-07-28T02:46:32.205Z,3.60
2017-07-28T02:47:37.140Z,3.30
2017-07-28T02:48:42.073Z,3.37
2017-07-28T02:49:47.013Z,3.08
2017-07-28T02:50:51.991Z,3.40
2017-07-28T02:51:56.973Z,3.37
2017-07-28T02:53:01.898Z,3.85
2017-07-28T02:54:06.828Z,3.50
2017-07-28T02:55:11.768Z,3.60
2017-07-28T02:56:16.760Z,4.53
2017-07-28T02:57:21.733Z,3.97
2017-07-28T02:58:26.688Z,3.20
2017-07-28T02:59:31.609Z,3.47
2017-07-28T03:00:36.193Z,3.60
2017-07-28T03:01:41.174Z,3.22
2017-07-28T03:02:46.102Z,3.35
2017-07-28T03:03:51.055Z,3.22
2017-07-28T03:04:55.992Z,3.97
2017-07-28T03:06:00.920Z,3.40
2017-07-28T03:07:05.894Z,3.65
2017-07-28T03:08:10.819Z,3.62
2017-07-28T03:09:15.756Z,4.10
2017-07-28T03:10:20.682Z,3.20
2017-07-28T03:11:25.625Z,3.85
2017-07-28T03:12:30.624Z,3.10
2017-07-28T03:13:35.785Z,4.07
2017-07-28T03:14:40.737Z,3.40
2017-07-28T03:15:45.678Z,3.65
2017-07-28T03:16:50.628Z,4.15
2017-07-28T03:17:55.612Z,3.37
2017-07-28T03:19:00.559Z,3.78
2017-07-28T03:20:05.498Z,3.22
2017-07-28T03:21:10.429Z,3.22
2017-07-28T03:22:15.336Z,4.00
2017-07-28T03:23:20.309Z,3.65
2017-07-28T03:24:25.260Z,3.50
2017-07-28T03:25:30.176Z,4.12
2017-07-28T03:26:35.118Z,3.45
2017-07-28T03:27:40.058Z,3.47
2017-07-28T03:28:45.020Z,4.00
2017-07-28T03:29:49.953Z,3.60
2017-07-28T03:30:54.897Z,3.83
2017-07-28T03:31:59.862Z,4.20
2017-07-28T03:33:04.780Z,3.62
2017-07-28T03:34:09.750Z,3.33
2017-07-28T03:35:14.670Z,3.70
2017-07-28T03:36:19.223Z,3.58
2017-07-28T03:37:24.182Z,4.20
2017-07-28T03:38:29.097Z,3.65
2017-07-28T03:39:34.090Z,3.87
2017-07-28T03:40:39.032Z,3.90
2017-07-28T03:41:44.050Z,3.92
2017-07-28T03:42:48.982Z,4.25
2017-07-28T03:43:53.918Z,3.53
2017-07-28T03:44:58.903Z,4.40
2017-07-28T03:46:03.618Z,3.83
2017-07-28T03:47:08.577Z,4.18
2017-07-28T03:48:13.157Z,4.00
2017-07-28T03:49:18.097Z,4.03
2017-07-28T03:50:23.145Z,3.80
2017-07-28T03:51:28.102Z,3.80
2017-07-28T03:52:33.029Z,4.47
2017-07-28T03:53:37.961Z,3.75
2017-07-28T03:54:42.982Z,3.60
2017-07-28T03:55:47.957Z,4.32
2017-07-28T03:56:52.929Z,4.18
2017-07-28T03:57:57.865Z,3.45
2017-07-28T03:59:02.787Z,4.12
2017-07-28T04:00:07.701Z,4.10
2017-07-28T04:01:12.680Z,4.50
2017-07-28T04:02:17.814Z,5.07
2017-07-28T04:03:22.970Z,4.20
2017-07-28T04:04:27.913Z,4.30
2017-07-28T04:05:32.862Z,4.15
2017-07-28T04:06:37.854Z,4.55
2017-07-28T04:07:42.826Z,4.22
2017-07-28T04:08:48.299Z,3.97
2017-07-28T04:09:53.489Z,4.28
2017-07-28T04:10:58.809Z,4.50
2017-07-28T04:12:03.776Z,4.75
2017-07-28T04:13:08.712Z,4.40
2017-07-28T04:14:13.902Z,4.25
2017-07-28T04:15:18.844Z,4.10
2017-07-28T04:16:23.769Z,4.55
2017-07-28T04:17:28.749Z,4.87
2017-07-28T04:18:33.676Z,4.50
2017-07-28T04:19:38.683Z,4.47
2017-07-28T04:20:43.785Z,5.55
2017-07-28T04:21:48.718Z,4.80
2017-07-28T04:22:53.702Z,4.40
2017-07-28T04:23:58.644Z,4.57
2017-07-28T04:25:03.605Z,4.70
2017-07-28T04:26:08.562Z,4.72
2017-07-28T04:27:13.529Z,4.68
2017-07-28T04:28:18.484Z,5.12
2017-07-28T04:29:23.406Z,4.95
2017-07-28T04:30:28.356Z,4.50
2017-07-28T04:31:34.234Z,4.57
2017-07-28T04:32:40.532Z,4.90
2017-07-28T04:33:46.039Z,5.22
2017-07-28T04:34:50.977Z,5.32
2017-07-28T04:35:55.928Z,5.00
2017-07-28T04:37:00.913Z,4.95
2017-07-28T04:38:05.840Z,4.87
2017-07-28T04:39:10.846Z,5.30
2017-07-28T04:40:15.777Z,4.80
2017-07-28T04:41:20.698Z,4.65
2017-07-28T04:42:25.652Z,5.57
2017-07-28T04:43:30.616Z,4.90
2017-07-28T04:44:35.602Z,4.68
2017-07-28T04:45:40.530Z,5.22
2017-07-28T04:46:46.127Z,5.18
2017-07-28T04:47:51.851Z,5.20
2017-07-28T04:48:58.145Z,5.35
2017-07-28T04:50:04.539Z,4.65
2017-07-28T04:51:10.977Z,5.70
2017-07-28T04:52:16.954Z,5.65
2017-07-28T04:53:23.341Z,5.10
2017-07-28T04:54:30.078Z,4.80
2017-07-28T04:55:36.788Z,5.00
2017-07-28T04:56:43.412Z,5.40
2017-07-28T04:57:50.109Z,5.12
2017-07-28T04:58:58.028Z,4.90
2017-07-28T05:00:03.771Z,5.10
2017-07-28T05:01:09.374Z,5.10
2017-07-28T05:02:15.925Z,5.18
2017-07-28T05:03:20.872Z,5.03
2017-07-28T05:04:27.821Z,4.90
2017-07-28T05:05:35.197Z,5.12
2017-07-28T05:06:40.583Z,4.82
2017-07-28T05:07:45.518Z,5.05
2017-07-28T05:08:50.438Z,5.65
2017-07-28T05:09:55.374Z,5.35
2017-07-28T05:11:00.321Z,5.30
2017-07-28T05:12:05.281Z,4.80
2017-07-28T05:13:10.205Z,4.72
2017-07-28T05:14:15.133Z,4.80
2017-07-28T05:15:20.078Z,5.47
2017-07-28T05:16:25.024Z,5.10
2017-07-28T05:17:29.991Z,4.90
2017-07-28T05:18:34.924Z,5.03
2017-07-28T05:19:39.846Z,4.20
2017-07-28T05:20:44.855Z,4.70
2017-07-28T05:21:50.165Z,4.95
2017-07-28T05:22:55.164Z,5.15
2017-07-28T05:24:00.177Z,5.30
2017-07-28T05:25:05.137Z,5.60
2017-07-28T05:26:10.066Z,5.18
2017-07-28T05:27:15.007Z,4.90
2017-07-28T05:28:19.962Z,4.70
2017-07-28T05:29:24.884Z,5.57
2017-07-28T05:30:30.013Z,4.70
2017-07-28T05:31:35.224Z,4.97
2017-07-28T05:32:40.162Z,5.12
2017-07-28T05:33:45.183Z,5.90
2017-07-28T05:34:55.595Z,5.68
2017-07-28T05:36:00.561Z,5.47
2017-07-28T05:37:05.532Z,6.07
2017-07-28T05:38:10.486Z,5.60
2017-07-28T05:39:20.982Z,6.03
2017-07-28T05:40:27.485Z,6.85
2017-07-28T05:41:32.413Z,5.47
2017-07-28T05:42:38.569Z,5.82
2017-07-28T05:43:44.592Z,5.50
2017-07-28T05:44:49.582Z,5.80
2017-07-28T05:45:54.520Z,6.15
2017-07-28T05:46:59.461Z,6.05
2017-07-28T05:48:04.429Z,6.00
2017-07-28T05:49:09.364Z,5.60
2017-07-28T05:50:14.400Z,6.68
2017-07-28T05:51:19.192Z,6.10
2017-07-28T05:52:23.798Z,6.03
2017-07-28T05:53:28.737Z,5.72
2017-07-28T05:54:33.713Z,6.45
2017-07-28T05:55:38.685Z,6.20
2017-07-28T05:56:43.605Z,6.35
2017-07-28T05:57:48.598Z,6.65
2017-07-28T05:58:53.501Z,6.43
2017-07-28T05:59:58.426Z,5.72
2017-07-28T06:01:03.421Z,6.35
2017-07-28T06:02:08.394Z,6.25
2017-07-28T06:03:13.322Z,5.12
2017-07-28T06:04:18.232Z,6.35
2017-07-28T06:05:23.168Z,5.80
2017-07-28T06:06:28.137Z,6.53
2017-07-28T06:07:33.062Z,5.45
2017-07-28T06:08:38.010Z,5.70
2017-07-28T06:09:42.983Z,6.28
2017-07-28T06:10:47.990Z,5.47
2017-07-28T06:11:52.962Z,5.87
2017-07-28T06:12:57.921Z,5.62
2017-07-28T06:14:02.884Z,6.00
2017-07-28T06:15:07.814Z,5.90
2017-07-28T06:16:12.741Z,6.22
2017-07-28T06:17:17.712Z,5.40
2017-07-28T06:18:22.626Z,5.22
2017-07-28T06:19:27.554Z,5.95
2017-07-28T06:20:32.527Z,6.43
2017-07-28T06:21:37.461Z,6.25
2017-07-28T06:22:42.433Z,5.43
2017-07-28T06:23:47.350Z,6.25
2017-07-28T06:24:52.296Z,5.87
2017-07-28T06:25:57.228Z,5.68
2017-07-28T06:27:02.171Z,5.97
2017-07-28T06:28:07.157Z,6.40
2017-07-28T06:29:12.137Z,6.30
2017-07-28T06:30:16.728Z,5.90
2017-07-28T06:31:21.650Z,5.70
2017-07-28T06:32:26.613Z,5.85
2017-07-28T06:33:31.592Z,5.70
2017-07-28T06:34:36.521Z,5.85
2017-07-28T06:35:41.465Z,5.70
2017-07-28T06:36:46.407Z,5.80
2017-07-28T06:37:51.337Z,6.57
2017-07-28T06:38:56.315Z,5.95
2017-07-28T06:40:01.057Z,6.18
2017-07-28T06:41:06.013Z,6.18
2017-07-28T06:42:10.949Z,5.90
2017-07-28T06:43:15.915Z,5.72
2017-07-28T06:44:20.889Z,5.85
2017-07-28T06:45:25.813Z,6.18
2017-07-28T06:46:30.758Z,5.57
2017-07-28T06:47:35.721Z,4.80
2017-07-28T06:48:40.662Z,6.75
2017-07-28T06:49:45.681Z,5.28
2017-07-28T06:50:50.604Z,5.30
2017-07-28T06:52:02.315Z,5.87
2017-07-28T06:53:07.257Z,5.95
2017-07-28T06:54:12.197Z,5.47
2017-07-28T06:55:16.805Z,5.62
2017-07-28T06:56:21.744Z,5.87
2017-07-28T06:57:26.676Z,5.20
2017-07-28T06:58:31.637Z,5.80
2017-07-28T06:59:36.576Z,4.80
2017-07-28T07:00:41.566Z,5.93
2017-07-28T07:01:46.525Z,6.10
2017-07-28T07:02:51.461Z,4.68
2017-07-28T07:03:56.020Z,5.50
2017-07-28T07:05:00.964Z,5.28
2017-07-28T07:06:05.958Z,5.10
2017-07-28T07:07:10.913Z,4.97
2017-07-28T07:08:15.865Z,5.05
2017-07-28T07:09:20.800Z,5.65
2017-07-28T07:10:25.760Z,5.28
2017-07-28T07:11:30.729Z,4.82
2017-07-28T07:12:35.717Z,5.22
2017-07-28T07:13:40.632Z,4.80
2017-07-28T07:14:45.602Z,4.55
2017-07-28T07:15:50.528Z,4.35
2017-07-28T07:16:55.510Z,4.97
2017-07-28T07:18:00.488Z,4.35
2017-07-28T07:19:05.480Z,4.85
2017-07-28T07:20:10.676Z,5.45
2017-07-28T07:21:15.433Z,5.10
2017-07-28T07:22:20.434Z,5.05
2017-07-28T07:23:25.564Z,5.10
2017-07-28T07:24:30.752Z,4.45
2017-07-28T07:25:35.737Z,5.03
2017-07-28T07:26:40.694Z,4.05
2017-07-28T07:27:45.753Z,4.25
2017-07-28T07:28:50.680Z,4.40
2017-07-28T07:29:55.640Z,4.40
2017-07-28T07:31:00.590Z,4.10
2017-07-28T07:32:05.517Z,4.03
2017-07-28T07:33:10.486Z,4.32
2017-07-28T07:34:15.445Z,4.70
2017-07-28T07:35:20.392Z,4.80
2017-07-28T07:36:25.343Z,4.37
2017-07-28T07:37:30.303Z,4.10
2017-07-28T07:38:35.277Z,4.40
2017-07-28T07:39:40.229Z,4.35
2017-07-28T07:40:45.206Z,4.78
2017-07-28T07:41:50.169Z,4.22
2017-07-28T07:42:55.116Z,4.25
2017-07-28T07:44:00.117Z,4.15
2017-07-28T07:45:05.061Z,4.05
2017-07-28T07:46:10.015Z,4.00
2017-07-28T07:47:14.986Z,4.15
2017-07-28T07:48:19.913Z,4.20
2017-07-28T07:49:24.926Z,4.15
2017-07-28T07:50:29.876Z,3.92
2017-07-28T07:51:34.822Z,3.92
2017-07-28T07:52:39.748Z,4.28
2017-07-28T07:53:44.701Z,3.47
2017-07-28T07:54:49.679Z,4.75
2017-07-28T07:55:54.610Z,3.85
2017-07-28T07:56:59.540Z,3.87
2017-07-28T07:58:04.475Z,3.42
2017-07-28T07:59:09.437Z,4.05
2017-07-28T08:00:14.424Z,4.20
2017-07-28T08:01:19.385Z,3.42
2017-07-28T08:02:24.316Z,4.32
2017-07-28T08:03:35.087Z,4.22
2017-07-28T08:04:40.057Z,4.15
2017-07-28T08:05:45.050Z,3.50
2017-07-28T08:06:49.987Z,4.10
2017-07-28T08:07:54.995Z,3.92
2017-07-28T08:08:59.969Z,3.78
2017-07-28T08:10:04.910Z,4.28
2017-07-28T08:11:11.311Z,4.37
2017-07-28T08:12:16.259Z,4.30
2017-07-28T08:13:21.218Z,4.12
2017-07-28T08:14:25.775Z,4.30
2017-07-28T08:15:30.710Z,3.20
2017-07-28T08:16:35.705Z,3.90
2017-07-28T08:17:40.319Z,3.70
2017-07-28T08:18:45.281Z,5.62
2017-07-28T08:19:50.232Z,4.10
2017-07-28T08:20:55.155Z,3.65
2017-07-28T08:22:00.182Z,3.90
2017-07-28T08:23:05.119Z,3.85
2017-07-28T08:24:10.071Z,3.30
2017-07-28T08:25:15.015Z,3.90
2017-07-28T08:26:19.950Z,3.83
2017-07-28T08:27:24.933Z,3.50
2017-07-28T08:28:30.117Z,3.83
2017-07-28T08:29:35.070Z,3.62
2017-07-28T08:30:39.830Z,3.50
2017-07-28T08:31:44.799Z,4.37
2017-07-28T08:32:49.776Z,3.67
2017-07-28T08:33:54.695Z,3.45
2017-07-28T08:34:59.972Z,4.03
2017-07-28T08:36:04.928Z,3.53
2017-07-28T08:37:09.861Z,3.97
2017-07-28T08:38:15.254Z,3.83
2017-07-28T08:39:20.226Z,3.97
2017-07-28T08:40:25.521Z,4.72
2017-07-28T08:41:30.461Z,3.60
2017-07-28T08:42:35.417Z,5.28
2017-07-28T08:43:40.390Z,4.20
2017-07-28T08:44:45.364Z,3.50
2017-07-28T08:45:49.941Z,4.37
2017-07-28T08:46:54.868Z,4.20
2017-07-28T08:47:59.481Z,4.15
2017-07-28T08:49:04.454Z,3.80
2017-07-28T08:50:09.412Z,3.90
2017-07-28T08:51:14.335Z,3.78
2017-07-28T08:52:19.275Z,4.80
2017-07-28T08:53:24.209Z,3.85
2017-07-28T08:54:29.185Z,4.10
2017-07-28T08:55:34.176Z,4.62
2017-07-28T08:56:39.123Z,4.20
2017-07-28T08:57:44.060Z,4.30
2017-07-28T08:58:49.003Z,4.47
2017-07-28T08:59:53.998Z,4.47
2017-07-28T09:00:58.988Z,4.53
2017-07-28T09:02:03.945Z,3.92
2017-07-28T09:03:08.886Z,5.15
2017-07-28T09:04:13.844Z,4.93
2017-07-28T09:05:18.833Z,5.00
2017-07-28T09:06:23.769Z,5.20
2017-07-28T09:07:28.690Z,4.68
2017-07-28T09:08:33.629Z,4.62
2017-07-28T09:09:38.591Z,5.37
2017-07-28T09:10:43.589Z,4.40
2017-07-28T09:11:48.527Z,5.78
2017-07-28T09:12:53.480Z,5.70
2017-07-28T09:13:58.519Z,5.50
2017-07-28T09:15:03.454Z,5.35
2017-07-28T09:16:08.432Z,4.95
2017-07-28T09:17:13.350Z,5.18
2017-07-28T09:18:18.316Z,5.75
2017-07-28T09:19:23.282Z,6.45
2017-07-28T09:20:28.223Z,5.90
2017-07-28T09:21:33.234Z,6.15
2017-07-28T09:22:38.165Z,5.90
2017-07-28T09:23:43.334Z,6.72
2017-07-28T09:24:48.712Z,6.43
2017-07-28T09:25:58.277Z,5.95
2017-07-28T09:27:03.286Z,6.70
2017-07-28T09:28:08.693Z,5.72
2017-07-28T09:29:14.478Z,6.32
2017-07-28T09:30:19.798Z,6.57
2017-07-28T09:31:24.739Z,6.82
2017-07-28T09:32:29.942Z,6.50
2017-07-28T09:33:34.879Z,6.18
2017-07-28T09:34:39.838Z,5.97
2017-07-28T09:35:44.799Z,6.12
2017-07-28T09:36:49.748Z,6.57
2017-07-28T09:37:54.730Z,6.25
2017-07-28T09:38:59.707Z,16.45
2017-07-28T09:40:03.951Z,52.25
2017-07-28T09:41:08.910Z,11.25
2017-07-28T09:42:14.200Z,18.23
2017-07-28T09:43:19.797Z,7.15
2017-07-28T09:44:24.740Z,6.70
2017-07-28T09:45:29.701Z,6.93
2017-07-28T09:46:34.702Z,6.00
2017-07-28T09:47:39.982Z,6.18
2017-07-28T09:48:45.318Z,6.62
2017-07-28T09:49:50.237Z,6.90
2017-07-28T09:50:55.169Z,6.35
2017-07-28T09:52:00.170Z,6.75
2017-07-28T09:53:05.122Z,6.20
2017-07-28T09:54:10.130Z,6.25
2017-07-28T09:55:15.065Z,6.43
2017-07-28T09:56:20.019Z,6.70
2017-07-28T09:57:24.956Z,6.32
2017-07-28T09:58:29.894Z,6.65
2017-07-28T09:59:34.856Z,6.28
2017-07-28T10:00:39.810Z,7.10
2017-07-28T10:01:44.793Z,6.40
2017-07-28T10:02:49.724Z,6.00
2017-07-28T10:03:54.645Z,6.90
2017-07-28T10:04:59.629Z,6.70
2017-07-28T10:06:04.593Z,7.00
2017-07-28T10:07:09.534Z,6.35
2017-07-28T10:08:14.857Z,6.65
2017-07-28T10:09:19.814Z,6.07
2017-07-28T10:10:25.160Z,5.75
2017-07-28T10:11:30.113Z,5.97
2017-07-28T10:12:35.070Z,5.82
2017-07-28T10:13:40.021Z,5.30
2017-07-28T10:14:44.979Z,6.35
2017-07-28T10:15:49.971Z,4.12
2017-07-28T10:16:54.918Z,3.90
2017-07-28T10:17:59.883Z,4.47
2017-07-28T10:19:04.824Z,3.95
2017-07-28T10:20:09.814Z,3.47
2017-07-28T10:21:14.801Z,3.42
2017-07-28T10:22:20.109Z,3.65
2017-07-28T10:23:25.089Z,4.00
2017-07-28T10:24:30.048Z,3.20
2017-07-28T10:25:34.984Z,4.40
2017-07-28T10:26:39.962Z,4.28
2017-07-28T10:27:44.930Z,3.53
2017-07-28T10:28:50.148Z,3.65
2017-07-28T10:29:55.388Z,3.45
2017-07-28T10:31:00.352Z,3.65
2017-07-28T10:32:05.326Z,2.65
2017-07-28T10:33:10.240Z,3.20
2017-07-28T10:34:15.013Z,2.80
2017-07-28T10:35:19.966Z,3.22
2017-07-28T10:36:24.913Z,3.37
2017-07-28T10:37:29.929Z,2.65
2017-07-28T10:38:34.882Z,3.42
2017-07-28T10:39:39.823Z,3.20
2017-07-28T10:40:44.769Z,3.30
2017-07-28T10:41:49.705Z,3.05
2017-07-28T10:42:54.690Z,3.40
2017-07-28T10:43:59.811Z,4.18
2017-07-28T10:45:05.058Z,4.30
2017-07-28T10:46:10.021Z,5.10
2017-07-28T10:47:14.974Z,3.45
2017-07-28T10:48:19.979Z,2.40
2017-07-28T10:49:25.022Z,2.42
2017-07-28T10:50:29.996Z,2.58
2017-07-28T10:51:34.954Z,2.25
2017-07-28T10:52:39.892Z,1.85
2017-07-28T10:53:44.892Z,2.40
2017-07-28T10:54:49.819Z,2.40
2017-07-28T10:55:54.560Z,2.47
2017-07-28T10:56:59.687Z,2.20
2017-07-28T10:58:04.651Z,2.78
2017-07-28T10:59:09.618Z,2.10
2017-07-28T11:00:14.551Z,1.55
2017-07-28T11:01:19.530Z,2.70
2017-07-28T11:02:24.478Z,1.70
2017-07-28T11:03:29.405Z,2.37
2017-07-28T11:04:34.402Z,2.00
2017-07-28T11:05:39.345Z,2.50
2017-07-28T11:06:44.276Z,2.10
2017-07-28T11:07:49.237Z,2.17
2017-07-28T11:08:54.184Z,2.20
2017-07-28T11:09:59.172Z,2.22
2017-07-28T11:11:04.137Z,2.17
2017-07-28T11:12:09.093Z,2.62
2017-07-28T11:13:14.049Z,2.33
2017-07-28T11:14:18.986Z,2.00
2017-07-28T11:15:23.972Z,1.77
2017-07-28T11:16:28.933Z,2.37
2017-07-28T11:17:33.888Z,1.77
2017-07-28T11:18:38.860Z,1.73
2017-07-28T11:19:43.828Z,1.90
2017-07-28T11:20:48.815Z,1.83
2017-07-28T11:21:54.045Z,2.10
2017-07-28T11:22:59.091Z,1.60
2017-07-28T11:24:04.032Z,2.20
2017-07-28T11:25:08.953Z,2.55
2017-07-28T11:26:13.923Z,2.10
2017-07-28T11:27:18.869Z,2.03
2017-07-28T11:28:23.816Z,1.92
2017-07-28T11:29:28.750Z,2.25
2017-07-28T11:30:33.700Z,2.17
2017-07-28T11:31:38.681Z,2.22
2017-07-28T11:32:43.621Z,2.05
2017-07-28T11:33:48.542Z,2.40
2017-07-28T11:34:53.510Z,1.92
2017-07-28T11:35:58.443Z,2.28
2017-07-28T11:37:03.442Z,2.03
2017-07-28T11:38:08.398Z,2.17
2017-07-28T11:39:13.005Z,2.20
2017-07-28T11:40:17.581Z,2.10
2017-07-28T11:41:22.526Z,2.17
2017-07-28T11:42:27.488Z,2.45
2017-07-28T11:43:32.421Z,2.30
2017-07-28T11:44:37.352Z,2.72
2017-07-28T11:45:42.315Z,2.65
2017-07-28T11:46:47.273Z,2.30
2017-07-28T11:47:52.261Z,2.20
2017-07-28T11:48:57.283Z,2.45
2017-07-28T11:50:02.332Z,2.30
2017-07-28T11:51:07.288Z,2.50
2017-07-28T11:52:12.624Z,2.25
2017-07-28T11:53:17.984Z,2.20
2017-07-28T11:54:22.941Z,2.30
2017-07-28T11:55:27.888Z,2.50
2017-07-28T11:56:32.906Z,2.22
2017-07-28T11:57:37.912Z,3.05
2017-07-28T11:58:42.914Z,2.83
2017-07-28T11:59:47.874Z,2.30
2017-07-28T12:00:52.837Z,2.65
2017-07-28T12:01:57.618Z,2.47
2017-07-28T12:03:02.664Z,2.20
2017-07-28T12:04:07.480Z,2.30
2017-07-28T12:05:12.441Z,2.40
2017-07-28T12:06:17.192Z,3.12
2017-07-28T12:07:21.611Z,2.40
2017-07-28T12:08:26.512Z,2.70
2017-07-28T12:09:31.507Z,2.40
2017-07-28T12:10:36.471Z,2.67
2017-07-28T12:11:41.241Z,2.53
2017-07-28T12:12:46.062Z,2.60
2017-07-28T12:13:50.866Z,2.40
2017-07-28T12:14:56.061Z,2.17
2017-07-28T12:16:01.032Z,2.75
2017-07-28T12:17:05.963Z,2.30
2017-07-28T12:18:10.909Z,2.05
2017-07-28T12:19:15.849Z,2.05
2017-07-28T12:20:20.893Z,2.12
2017-07-28T12:21:25.860Z,2.53
2017-07-28T12:22:31.294Z,2.20
2017-07-28T12:23:36.229Z,2.15
2017-07-28T12:24:41.206Z,3.03
2017-07-28T12:25:46.520Z,2.12
2017-07-28T12:26:51.489Z,1.75
2017-07-28T12:27:57.482Z,1.73
2017-07-28T12:29:02.496Z,1.70
2017-07-28T12:30:07.454Z,1.98
2017-07-28T12:31:12.445Z,2.12
2017-07-28T12:32:17.377Z,2.15
2017-07-28T12:33:22.349Z,2.08
2017-07-28T12:34:27.292Z,2.28
2017-07-28T12:35:32.300Z,2.00
2017-07-28T12:36:37.274Z,2.20
2017-07-28T12:37:42.251Z,1.90
2017-07-28T12:38:47.188Z,2.00
2017-07-28T12:39:52.139Z,1.90
2017-07-28T12:40:57.115Z,1.83
2017-07-28T12:42:02.182Z,1.60
2017-07-28T12:43:07.122Z,1.70
2017-07-28T12:44:12.065Z,1.42
2017-07-28T12:45:17.005Z,1.40
2017-07-28T12:46:21.997Z,1.55
2017-07-28T12:47:26.965Z,1.42
2017-07-28T12:48:31.921Z,1.33
2017-07-28T12:49:36.862Z,1.55
2017-07-28T12:50:41.844Z,1.77
2017-07-28T12:51:46.796Z,1.85
2017-07-28T12:52:53.046Z,1.45
2017-07-28T12:53:59.955Z,2.03
2017-07-28T12:55:07.720Z,1.48
2017-07-28T12:56:14.402Z,2.78
2017-07-28T12:57:19.967Z,4.07
2017-07-28T12:58:27.971Z,2.30
2017-07-28T12:59:33.516Z,1.50
2017-07-28T13:00:39.383Z,1.50
2017-07-28T13:01:45.028Z,1.45
2017-07-28T13:02:51.159Z,1.30
2017-07-28T13:03:57.554Z,1.48
2017-07-28T13:05:06.079Z,1.60
2017-07-28T13:06:11.760Z,1.70
2017-07-28T13:07:18.648Z,1.40
2017-07-28T13:08:26.708Z,1.42
2017-07-28T13:09:33.848Z,1.37
2017-07-28T13:10:40.559Z,1.40
2017-07-28T13:11:47.569Z,1.77
2017-07-28T13:12:54.199Z,1.52
2017-07-28T13:14:00.325Z,2.00
2017-07-28T13:15:06.974Z,1.55
2017-07-28T13:16:14.148Z,1.52
2017-07-28T13:17:21.211Z,1.40
2017-07-28T13:20:03.367Z,2.40
2017-07-28T13:21:10.855Z,1.50
2017-07-28T13:26:58.203Z,1.30
2017-07-28T13:28:05.652Z,1.60
2017-07-28T13:29:12.424Z,2.17
2017-07-28T13:30:21.381Z,1.67
2017-07-28T13:33:03.908Z,2.03
2017-07-28T13:34:09.694Z,1.60
2017-07-28T13:35:15.343Z,1.55
2017-07-28T13:36:20.462Z,1.45
2017-07-28T13:37:25.070Z,1.65
2017-07-28T13:38:30.178Z,1.33
2017-07-28T13:39:35.438Z,1.73
2017-07-28T13:40:40.352Z,1.80
2017-07-28T13:41:45.770Z,1.50
2017-07-28T13:44:25.927Z,1.63
2017-07-28T13:45:31.046Z,1.48
2017-07-28T13:46:41.376Z,1.48
2017-07-28T13:47:47.478Z,1.70
2017-07-28T13:48:53.129Z,1.40
2017-07-28T13:49:58.105Z,1.60
2017-07-28T13:51:03.182Z,1.92
2017-07-28T13:52:08.132Z,1.58
2017-07-28T13:53:13.848Z,2.08
2017-07-28T13:54:18.789Z,1.70
2017-07-28T13:55:23.973Z,1.60
2017-07-28T13:56:29.784Z,1.40
2017-07-28T13:57:34.707Z,1.80
2017-07-28T13:58:39.632Z,1.48
2017-07-28T13:59:44.597Z,2.00
2017-07-28T14:00:49.519Z,1.70
2017-07-28T14:01:54.456Z,1.85
2017-07-28T14:02:59.399Z,1.30
2017-07-28T14:04:04.335Z,1.40
2017-07-28T14:05:09.353Z,1.50
2017-07-28T14:06:14.283Z,1.80
2017-07-28T14:07:19.205Z,1.95
2017-07-28T14:08:24.137Z,1.70
2017-07-28T14:09:29.106Z,1.40
2017-07-28T14:10:34.071Z,1.33
2017-07-28T14:11:38.993Z,1.62
2017-07-28T14:12:43.922Z,1.42
2017-07-28T14:13:48.864Z,1.60
2017-07-28T14:14:53.794Z,1.60
2017-07-28T14:15:58.757Z,1.20
2017-07-28T14:17:03.732Z,1.55
2017-07-28T14:18:08.665Z,1.62
2017-07-28T14:19:13.620Z,1.60
2017-07-28T14:20:18.539Z,1.52
2017-07-28T14:21:24.253Z,1.73
2017-07-28T14:22:29.790Z,1.60
2017-07-28T14:23:34.876Z,1.40
2017-07-28T14:24:39.660Z,1.42
2017-07-28T14:25:46.372Z,1.65
2017-07-28T14:26:53.731Z,1.27
2017-07-28T14:27:59.253Z,1.80
2017-07-28T14:29:04.191Z,1.50
2017-07-28T14:30:08.887Z,1.67
2017-07-28T14:31:14.171Z,1.95
2017-07-28T14:32:19.181Z,1.30
2017-07-28T14:33:24.173Z,1.40
2017-07-28T14:34:29.167Z,2.15
2017-07-28T14:35:34.213Z,1.65
2017-07-28T14:36:39.163Z,1.85